Aktualne dane pomiarowe

Uwaga, wersja testowa! Automatyczne pobieranie danych za pomocą narzędzi lub skryptów to umożliwiających jest zabronione.

Dane meteo z obszaru Polski uzyskane na podstawie depesz SYNOP pobieranych co godzinę z NWS. Najedź myszką na symbol przedstawiony w tabeli, aby uzyskać informacje co do jego znaczenia. Prosimy pamiętać, że to testowa wersja strony, która jeszcze nie jest ukończona. Stworzono również jest krótki FAQ dotyczący korzystania z tej podstrony Anomalie temperatury w chwili obecnej odniesione są do okresu referencyjnego 1951-2016. Okres ten będzie później zmieniony na 1981-2010. Kliknij ikonę aby pobrać plik CSV. Kliknij ikonę aby wygenerować mapę synoptyczną dla danego terminu.

Wybierz Datę:    

        

Powidz (12336)

Dane terminowe dla wybranej stacji. Kliknij datę, aby otrzymać dane z tego terminu dla wszystkich stacji.

TemperaturaZachmurzenieWiatrCiśnienieOpadyPogoda
 Data t td wb tx tn tg rh  Nt Nl Cl Cm Ch ws wd g1 g2 wx mslp ppp ch 24h 12h t ww ww w1 w2  
2019-07-07 23:00:00 12.1 8.6 9.9--- 7910.0wxwxwxwx4wx---1010.7 996.7 0.7---------
2019-07-07 22:00:00 13.0 8.9 10.4--- 7610.0wxwxwx4wx---1010.3 996.4 0.8---------
2019-07-07 21:00:00 13.9 9.2 11.0--- 7310.0wxwxwx4wx---1010.1 996.2 1.3---------
2019-07-07 20:00:00 14.2 8.6 10.8--- 6910.0wxwxwx5wx---1009.8 995.9 1.3---------
2019-07-07 19:00:00 14.9 7.8 10.7--- 6310.0wxwxwx6wx---1009.4 995.6 1.1---------
2019-07-07 18:00:00 15.9 7.7 11.1--- 5810.0wxwxwx9wx---1008.7 994.9 0.5---------
2019-07-07 17:00:00 16.7 7.5 11.4--- 5510.0wxwxwx9wx14--1008.3 994.6 0.0---------
2019-07-07 16:00:00 17.2 7.0 11.4--- 5110.0wxwxwx8wx13--1008.2 994.4 0.2---------
2019-07-07 15:00:00 17.4 7.1 11.6--- 5110.0wxwxwx7wx---1008.1 994.3 0.4---------
2019-07-07 14:00:00 17.9 6.4 11.5--- 4710.0wxwxwx7wx12--1008.3 994.6 1.0---------
2019-07-07 13:00:00 17.8 6.3 11.4--- 4710.0wxwxwx8wx---1007.9 994.2 0.9---------
2019-07-07 12:00:00 18.2 6.0 11.5--- 4510.0wxwxwx9wx---1007.6 993.9 0.8---------
2019-07-07 11:00:00 18.1 5.3 11.2--- 4310.0wxwxwx8wx---1007.2 993.5 0.7---------
2019-07-07 10:00:00 17.7 6.3 11.4--- 4710.0wxwxwx9wx14--1007.1 993.4 0.6---------
2019-07-07 09:00:00 17.4 7.4 11.7--- 5210.0wxwxwx9wx---1006.7 993.0 0.4---------
2019-07-07 08:00:00 16.6 7.9 11.5--- 5610.0wxwxwx8wx---1006.5 992.7 0.2---------
2019-07-07 07:00:00 15.0 9.1 11.4--- 6810.0wxwxwxwx8wx---1006.5 992.6 0.3---------
2019-07-07 06:00:00 13.6 10.0 11.3--- 7910.0wxwxwxwx8wx---1006.5 992.6 0.7---------
2019-07-07 05:00:00 12.5 11.1 11.5--- 9110.0wxwxwxwx6wx---1006.4 992.5 0.6---------
2019-07-07 04:00:00 12.8 11.7 12.0--- 9310.0wxwxwx7wx---1006.2 992.3 0.5---------
2019-07-07 03:00:00 13.9 13.1 13.3--- 9510.0wxwxwx6wx---1005.6 991.8 -0.1---------
2019-07-07 02:00:00 14.6 13.8 14.0--- 9510.0wxwxwx5wx---1005.6 991.8 -0.3---wx-w1w2--
2019-07-07 01:00:00 15.1 14.5 14.6--- 9610.0wxwxwx5wx---1005.7 991.8 -0.8---wx-w1w2--
2019-07-07 00:00:00 15.5 15.0 15.1--- 9710.0wxwxwx5wx---1005.7 991.9 -0.6---wx-w1w2--
2019-07-06 23:00:00 15.3 14.8 14.9--- 9710.0wxwxwx4wx---1005.8 992.0 -0.4---wx-w1w2--
2019-07-06 22:00:00 15.7 14.7 15.0--- 9410.0wxwxwx3wx---1006.2 992.5 -0.5---wx-w1w2--
2019-07-06 21:00:00 16.4 15.0 15.4--- 9110.0wxwxwx2wx---1006.1 992.4 -0.2---wx---
2019-07-06 20:00:00 16.8 15.0 15.5--- 8910.0wxwxwxwx2wx---1006.1 992.4 -0.5---------
2019-07-06 19:00:00 16.8 15.8 16.1--- 9410.0wxwxwxwx1----1006.6 992.9 0.2---------
2019-07-06 18:00:00 17.5 15.6 16.1--- 8910.0wxwxwxwx2wx---1006.3 992.6 -0.4---wx-w1--
2019-07-06 17:00:00 19.8 12.9 15.4--- 6410.0wx-wx2wx---1006.4 992.9 -0.7---------
2019-07-06 16:00:00 20.5 11.9 15.2--- 5810.0wx-wx1----1006.2 992.7 -1.8---------
2019-07-06 15:00:00 20.4 12.5 15.4--- 6110.0wx-wx1----1006.5 993.0 -1.8---------
2019-07-06 14:00:00 19.8 12.9 15.4--- 6410.0wxwxwxwx2wx---1007.1 993.5 -1.5---wx-w1--
2019-07-06 13:00:00 20.4 11.1 14.7--- 5510.0wxwxwxwx4wx---1007.9 994.4 -1.0---------
2019-07-06 12:00:00 20.0 11.4 14.7--- 5810.0wxwxwx5wx---1008.3 994.7 -1.0---wx-w1--
2019-07-06 11:00:00 19.6 11.1 14.4--- 5810.0wxwxwxwx5wx---1008.7 995.0 -1.1---wx---
2019-07-06 10:00:00 19.2 10.7 14.0--- 5810.0wxwxwx6wx---1008.9 995.3 -1.2---------
2019-07-06 09:00:00 18.9 10.7 13.9--- 5910.0wxwxwxwx6wx---1009.3 995.6 -1.3---------
2019-07-06 08:00:00 18.2 11.1 13.8--- 6310.0wxwxwx6wx---1009.8 996.1 -0.9---------
2019-07-06 06:00:00 15.5 12.1 13.2--- 8010.0wxwxwx4wx---1010.7 996.8 -0.6---------
2019-07-06 05:00:00 14.7 12.4 13.1--- 8610.0wxwxwx3wx---1010.9 997.0 -0.8---------
2019-07-06 04:00:00 14.4 12.4 13.0--- 8810.0wxwxwx3wx---1011.1 997.2 -0.9---------
2019-07-06 03:00:00 13.8 12.3 12.7--- 9110.0wxwxwx3wx---1011.3 997.4 -0.6---------
2019-07-06 02:00:00 13.7 12.3 12.7--- 9110.0wxwxwx2wx---1011.7 997.8 -0.6---------
2019-07-06 01:00:00 13.8 12.2 12.7--- 9010.0wxwxwx3wx---1012.0 998.0 -0.3---------
2019-07-06 00:00:00 13.7 12.9 13.1--- 9510.0wxwxwx3wx---1012.1 998.1 -0.2---------
1.6 ms

 

Print Friendly, PDF & Email